createdAt,value
2023-01-31T00:00:50.235Z,9.37
2023-01-31T00:03:19.144Z,12.97
2023-01-31T00:05:47.905Z,10.07
2023-01-31T00:08:18.595Z,13.47
2023-01-31T00:10:47.327Z,17.87
2023-01-31T00:13:15.961Z,12.40
2023-01-31T00:15:44.737Z,9.27
2023-01-31T00:18:13.463Z,13.63
2023-01-31T00:20:42.126Z,11.47
2023-01-31T00:23:10.967Z,12.73
2023-01-31T00:25:41.154Z,15.10
2023-01-31T00:28:09.881Z,11.47
2023-01-31T00:30:39.253Z,8.90
2023-01-31T00:33:08.118Z,11.77
2023-01-31T00:35:41.498Z,9.13
2023-01-31T00:38:10.219Z,7.63
2023-01-31T00:40:40.364Z,9.73
2023-01-31T00:43:09.110Z,8.47
2023-01-31T00:45:37.929Z,7.93
2023-01-31T00:48:06.745Z,8.37
2023-01-31T00:50:36.031Z,4.30
2023-01-31T00:53:04.975Z,3.83
2023-01-31T00:55:34.758Z,3.67
2023-01-31T00:58:05.812Z,4.37
2023-01-31T01:00:35.053Z,4.50
2023-01-31T01:03:04.224Z,3.90
2023-01-31T01:05:33.044Z,4.90
2023-01-31T01:08:01.722Z,3.93
2023-01-31T01:10:30.755Z,6.53
2023-01-31T01:12:59.394Z,7.27
2023-01-31T01:15:29.605Z,5.30
2023-01-31T01:17:58.341Z,7.80
2023-01-31T01:20:27.119Z,6.40
2023-01-31T01:22:55.840Z,7.27
2023-01-31T01:25:25.144Z,8.33
2023-01-31T01:27:53.890Z,8.57
2023-01-31T01:30:22.815Z,7.30
2023-01-31T01:32:56.572Z,4.93
2023-01-31T01:35:25.374Z,6.10
2023-01-31T01:37:54.033Z,6.20
2023-01-31T01:40:23.035Z,11.23
2023-01-31T01:42:51.706Z,5.47
2023-01-31T01:45:21.446Z,6.67
2023-01-31T01:47:55.119Z,6.67
2023-01-31T01:50:31.118Z,3.13
2023-01-31T01:53:06.230Z,3.77
2023-01-31T01:55:43.831Z,11.53
2023-01-31T01:58:20.099Z,9.03
2023-01-31T02:00:51.300Z,8.03
2023-01-31T02:03:22.393Z,10.53
2023-01-31T02:05:55.303Z,12.53
2023-01-31T02:08:28.797Z,17.70
2023-01-31T02:11:03.435Z,14.13
2023-01-31T02:13:33.620Z,10.13
2023-01-31T02:16:02.445Z,17.83
2023-01-31T02:18:32.671Z,11.67
2023-01-31T02:21:53.530Z,9.03
2023-01-31T02:25:14.274Z,12.93
2023-01-31T02:28:28.187Z,13.77
2023-01-31T02:32:04.677Z,12.77
2023-01-31T02:34:47.218Z,11.20
2023-01-31T02:37:37.722Z,11.93
2023-01-31T02:40:21.710Z,13.87
2023-01-31T02:43:00.949Z,8.77
2023-01-31T02:45:41.929Z,11.27
2023-01-31T02:48:25.574Z,10.60
2023-01-31T02:51:08.217Z,9.27
2023-01-31T02:53:45.646Z,13.33
2023-01-31T02:56:23.746Z,11.53
2023-01-31T02:59:00.689Z,11.40
2023-01-31T03:01:34.607Z,10.53
2023-01-31T03:04:08.541Z,10.60
2023-01-31T03:07:01.785Z,12.73
2023-01-31T03:09:51.363Z,9.93
2023-01-31T03:12:41.873Z,10.47
2023-01-31T03:15:51.571Z,10.43
2023-01-31T03:18:27.618Z,11.77
2023-01-31T03:21:08.150Z,7.80
2023-01-31T03:23:43.526Z,15.03
2023-01-31T03:26:13.172Z,13.77
2023-01-31T03:28:44.681Z,13.83
2023-01-31T03:31:22.864Z,9.27
2023-01-31T03:33:58.149Z,9.83
2023-01-31T03:36:38.454Z,10.50
2023-01-31T03:39:40.587Z,8.80
2023-01-31T03:42:21.466Z,11.07
2023-01-31T03:44:59.092Z,9.00
2023-01-31T03:47:34.434Z,10.50
2023-01-31T03:50:14.124Z,16.37
2023-01-31T03:52:52.900Z,11.03
2023-01-31T03:55:32.879Z,10.40
2023-01-31T03:58:06.375Z,8.03
2023-01-31T04:00:40.218Z,8.00
2023-01-31T04:03:19.748Z,9.10
2023-01-31T04:05:50.062Z,9.53
2023-01-31T04:08:21.208Z,10.30
2023-01-31T04:11:01.164Z,9.83
2023-01-31T04:13:29.886Z,11.67
2023-01-31T04:15:58.968Z,9.57
2023-01-31T04:18:27.723Z,13.30
2023-01-31T04:20:56.577Z,11.20
2023-01-31T04:23:26.650Z,14.80
2023-01-31T04:25:55.789Z,14.23
2023-01-31T04:28:25.943Z,13.93
2023-01-31T04:30:55.858Z,10.47
2023-01-31T04:33:25.585Z,8.93
2023-01-31T04:35:54.950Z,13.10
2023-01-31T04:38:23.671Z,11.07
2023-01-31T04:40:52.420Z,9.43
2023-01-31T04:43:21.190Z,9.27
2023-01-31T04:45:51.546Z,11.13
2023-01-31T04:48:20.364Z,12.43
2023-01-31T04:50:51.064Z,11.03
2023-01-31T04:53:22.147Z,11.37
2023-01-31T04:55:50.881Z,16.33
2023-01-31T04:58:23.056Z,16.83
2023-01-31T05:00:55.641Z,14.37
2023-01-31T05:03:24.882Z,18.70
2023-01-31T05:05:53.724Z,14.53
2023-01-31T05:08:23.079Z,10.30
2023-01-31T05:10:59.185Z,13.77
2023-01-31T05:13:32.790Z,20.03
2023-01-31T05:16:03.530Z,19.37
2023-01-31T05:18:32.731Z,14.33
2023-01-31T05:21:01.956Z,12.27
2023-01-31T05:23:31.481Z,12.97
2023-01-31T05:26:00.366Z,12.27
2023-01-31T05:28:29.284Z,10.53
2023-01-31T05:31:07.289Z,14.50
2023-01-31T05:33:37.070Z,9.60
2023-01-31T05:36:06.907Z,14.07
2023-01-31T05:38:49.713Z,9.57
2023-01-31T05:41:20.202Z,8.23
2023-01-31T05:43:49.401Z,8.73
2023-01-31T05:46:19.691Z,10.27
2023-01-31T05:48:48.398Z,9.30
2023-01-31T05:51:17.526Z,14.77
2023-01-31T05:53:47.505Z,12.27
2023-01-31T05:56:16.700Z,11.43
2023-01-31T05:58:50.364Z,12.77
2023-01-31T06:01:22.935Z,13.67
2023-01-31T06:03:52.192Z,10.40
2023-01-31T06:06:22.089Z,9.10
2023-01-31T06:08:50.794Z,13.57
2023-01-31T06:11:19.473Z,14.90
2023-01-31T06:13:49.446Z,10.17
2023-01-31T06:16:19.712Z,10.10
2023-01-31T06:18:48.468Z,9.60
2023-01-31T06:21:17.264Z,11.03
2023-01-31T06:23:47.966Z,8.57
2023-01-31T06:26:16.858Z,6.63
2023-01-31T06:28:46.418Z,9.13
2023-01-31T06:31:15.614Z,8.57
2023-01-31T06:33:47.963Z,10.80
2023-01-31T06:36:19.420Z,12.17
2023-01-31T06:38:51.943Z,10.60
2023-01-31T06:41:21.718Z,16.60
2023-01-31T06:43:51.328Z,9.60
2023-01-31T06:46:20.284Z,10.17
2023-01-31T06:48:50.523Z,14.10
2023-01-31T06:51:19.305Z,11.67
2023-01-31T06:53:48.076Z,9.13
2023-01-31T06:56:16.964Z,6.93
2023-01-31T06:58:45.677Z,13.53
2023-01-31T07:01:16.476Z,9.67
2023-01-31T07:03:45.472Z,6.43
2023-01-31T07:06:15.559Z,9.80
2023-01-31T07:08:44.349Z,13.40
2023-01-31T07:11:13.009Z,9.43
2023-01-31T07:13:41.771Z,9.13
2023-01-31T07:16:10.704Z,15.23
2023-01-31T07:18:39.721Z,10.63
2023-01-31T07:21:08.388Z,9.63
2023-01-31T07:23:38.805Z,10.23
2023-01-31T07:26:08.152Z,11.30
2023-01-31T07:28:36.779Z,12.40
2023-01-31T07:31:11.753Z,12.60
2023-01-31T07:33:42.027Z,8.97
2023-01-31T07:36:16.434Z,9.20
2023-01-31T07:38:46.897Z,11.57
2023-01-31T07:41:15.756Z,8.20
2023-01-31T07:43:44.427Z,8.73
2023-01-31T07:46:13.133Z,12.93
2023-01-31T07:48:41.831Z,9.77
2023-01-31T07:51:10.588Z,10.33
2023-01-31T07:53:42.252Z,8.17
2023-01-31T07:56:15.957Z,14.23
2023-01-31T07:58:47.378Z,11.23
2023-01-31T08:01:36.810Z,10.40
2023-01-31T08:04:20.094Z,8.33
2023-01-31T08:06:53.970Z,10.57
2023-01-31T08:09:22.846Z,13.43
2023-01-31T08:11:52.971Z,7.50
2023-01-31T08:14:25.400Z,8.33
2023-01-31T08:16:54.483Z,11.30
2023-01-31T08:19:23.292Z,11.13
2023-01-31T08:21:53.196Z,9.80
2023-01-31T08:24:21.887Z,9.70
2023-01-31T08:26:52.084Z,7.73
2023-01-31T08:29:22.194Z,10.83
2023-01-31T08:31:52.974Z,6.67
2023-01-31T08:34:23.524Z,9.23
2023-01-31T08:36:52.455Z,8.97
2023-01-31T08:39:21.123Z,9.03
2023-01-31T08:41:49.827Z,10.07
2023-01-31T08:44:19.935Z,9.27
2023-01-31T08:46:48.733Z,11.57
2023-01-31T08:49:17.609Z,10.37
2023-01-31T08:51:46.372Z,7.47
2023-01-31T08:54:16.252Z,8.60
2023-01-31T08:56:44.981Z,7.97
2023-01-31T08:59:16.971Z,11.57
2023-01-31T09:01:49.012Z,10.20
2023-01-31T09:04:17.667Z,9.97
2023-01-31T09:06:46.273Z,8.23
2023-01-31T09:09:14.980Z,9.23
2023-01-31T09:11:43.810Z,9.50
2023-01-31T09:14:12.512Z,6.53
2023-01-31T09:16:43.245Z,10.30
2023-01-31T09:19:13.851Z,12.37
2023-01-31T09:21:42.581Z,9.73
2023-01-31T09:24:12.451Z,8.23
2023-01-31T09:26:41.176Z,9.27
2023-01-31T09:29:09.903Z,9.40
2023-01-31T09:31:38.759Z,7.70
2023-01-31T09:34:07.549Z,7.80
2023-01-31T09:36:38.090Z,7.03
2023-01-31T09:39:06.820Z,7.57
2023-01-31T09:41:42.854Z,12.20
2023-01-31T09:44:18.491Z,9.30
2023-01-31T09:46:57.226Z,9.50
2023-01-31T09:49:31.877Z,7.00
2023-01-31T09:52:05.310Z,10.03
2023-01-31T09:54:39.182Z,6.83
2023-01-31T09:57:24.622Z,9.43
2023-01-31T10:00:11.364Z,7.30
2023-01-31T10:03:25.888Z,8.70
2023-01-31T10:06:04.098Z,10.13
2023-01-31T10:08:48.510Z,7.63
2023-01-31T10:11:32.965Z,6.33
2023-01-31T10:14:15.052Z,7.73
2023-01-31T10:16:57.404Z,5.33
2023-01-31T10:19:34.336Z,8.07
2023-01-31T10:22:11.503Z,7.40
2023-01-31T10:24:49.197Z,6.20
2023-01-31T10:27:36.609Z,12.60
2023-01-31T10:30:16.142Z,6.93
2023-01-31T10:32:49.748Z,5.70
2023-01-31T10:35:25.039Z,6.67
2023-01-31T10:38:02.058Z,9.17
2023-01-31T10:40:38.793Z,8.03
2023-01-31T10:43:22.360Z,6.77
2023-01-31T10:45:51.101Z,8.07
2023-01-31T10:48:25.553Z,7.10
2023-01-31T10:51:12.760Z,6.63
2023-01-31T10:54:05.355Z,7.70
2023-01-31T10:56:39.953Z,8.47
2023-01-31T10:59:17.737Z,7.17
2023-01-31T11:01:46.617Z,6.90
2023-01-31T11:04:30.796Z,8.93
2023-01-31T11:07:02.426Z,8.80
2023-01-31T11:09:36.371Z,4.50
2023-01-31T11:12:10.270Z,8.50
2023-01-31T11:15:16.158Z,7.47
2023-01-31T11:17:47.499Z,10.10
2023-01-31T11:20:26.957Z,7.03
2023-01-31T11:23:00.177Z,7.90
2023-01-31T11:25:35.722Z,10.17
2023-01-31T11:28:23.641Z,8.67
2023-01-31T11:30:56.787Z,7.30
2023-01-31T11:33:50.140Z,9.63
2023-01-31T11:36:23.094Z,11.53
2023-01-31T11:39:34.119Z,9.47
2023-01-31T11:42:16.857Z,8.70
2023-01-31T11:45:03.613Z,9.63
2023-01-31T11:47:44.787Z,9.93
2023-01-31T11:50:26.794Z,9.77
2023-01-31T11:53:27.304Z,5.70
2023-01-31T11:56:13.057Z,10.03
2023-01-31T11:58:46.390Z,10.13
2023-01-31T12:01:22.900Z,10.30
2023-01-31T12:04:03.920Z,7.17
2023-01-31T12:06:36.981Z,10.77
2023-01-31T12:09:23.489Z,7.77
2023-01-31T12:12:31.425Z,7.60
2023-01-31T12:15:14.252Z,12.43
2023-01-31T12:17:50.847Z,12.53
2023-01-31T12:20:33.263Z,10.70
2023-01-31T12:23:21.868Z,9.33
2023-01-31T12:26:07.482Z,8.00
2023-01-31T12:28:59.647Z,8.57
2023-01-31T12:32:04.889Z,10.27
2023-01-31T12:35:09.492Z,6.70
2023-01-31T12:37:59.803Z,7.80
2023-01-31T12:40:44.383Z,9.27
2023-01-31T12:43:38.377Z,14.07
2023-01-31T12:46:19.469Z,8.17
2023-01-31T12:49:22.725Z,8.53
2023-01-31T12:52:03.636Z,12.47
2023-01-31T12:54:56.688Z,9.97
2023-01-31T12:57:41.585Z,12.73
2023-01-31T13:00:37.930Z,10.63
2023-01-31T13:03:43.718Z,11.90
2023-01-31T13:06:18.172Z,12.70
2023-01-31T13:09:08.837Z,8.53
2023-01-31T13:11:42.271Z,13.87
2023-01-31T13:14:20.065Z,11.37
2023-01-31T13:16:55.584Z,11.83
2023-01-31T13:19:32.562Z,9.87
2023-01-31T13:22:15.605Z,11.87
2023-01-31T13:24:53.696Z,7.87
2023-01-31T13:27:33.524Z,8.23
2023-01-31T13:30:12.344Z,9.40
2023-01-31T13:32:48.309Z,12.50
2023-01-31T13:35:26.094Z,12.77
2023-01-31T13:38:01.953Z,10.30
2023-01-31T13:40:52.463Z,11.50
2023-01-31T13:43:21.854Z,11.30
2023-01-31T13:45:57.536Z,10.13
2023-01-31T13:48:37.837Z,11.37
2023-01-31T13:51:17.864Z,12.23
2023-01-31T13:53:55.092Z,10.27
2023-01-31T13:56:31.941Z,11.87
2023-01-31T14:02:30.542Z,10.53
2023-01-31T14:05:09.351Z,7.47
2023-01-31T14:07:38.032Z,11.33
2023-01-31T14:10:39.914Z,15.03
2023-01-31T14:13:39.794Z,11.07
2023-01-31T14:16:39.954Z,10.50
2023-01-31T14:20:05.641Z,13.27
2023-01-31T14:22:36.736Z,10.03
2023-01-31T14:25:16.118Z,14.57
2023-01-31T14:28:01.564Z,14.50
2023-01-31T14:30:42.428Z,13.13
2023-01-31T14:33:30.452Z,12.73
2023-01-31T14:36:46.211Z,11.83
2023-01-31T14:40:09.700Z,9.93
2023-01-31T14:43:14.255Z,12.63
2023-01-31T14:46:09.025Z,10.30
2023-01-31T14:49:28.620Z,13.17
2023-01-31T14:52:29.670Z,14.53
2023-01-31T15:02:52.630Z,11.57
2023-01-31T15:05:43.198Z,7.00
2023-01-31T15:08:49.470Z,8.47
2023-01-31T15:11:55.307Z,8.87
2023-01-31T15:14:49.442Z,6.70
2023-01-31T15:17:35.143Z,8.43
2023-01-31T15:20:19.045Z,7.90
2023-01-31T15:22:52.641Z,13.20
2023-01-31T15:25:34.957Z,8.20
2023-01-31T15:28:06.755Z,6.80
2023-01-31T15:30:37.821Z,11.03
2023-01-31T15:33:18.415Z,9.53
2023-01-31T15:35:55.425Z,10.63
2023-01-31T15:38:34.160Z,8.10
2023-01-31T15:41:22.914Z,8.20
2023-01-31T15:43:55.006Z,7.60
2023-01-31T15:46:29.506Z,6.57
2023-01-31T15:48:59.165Z,8.73
2023-01-31T15:51:29.687Z,5.83
2023-01-31T15:54:09.021Z,8.03
2023-01-31T15:56:49.268Z,10.67
2023-01-31T15:59:20.402Z,6.63
2023-01-31T16:01:53.277Z,11.60
2023-01-31T16:04:23.644Z,6.07
2023-01-31T16:06:53.980Z,6.60
2023-01-31T16:10:02.298Z,10.70
2023-01-31T16:12:38.692Z,9.50
2023-01-31T16:17:29.495Z,5.77
2023-01-31T16:19:28.088Z,5.67
2023-01-31T16:22:00.155Z,9.17
2023-01-31T16:24:32.186Z,7.70
2023-01-31T16:27:24.177Z,6.97
2023-01-31T16:30:00.857Z,7.77
2023-01-31T16:32:34.101Z,7.83
2023-01-31T16:35:06.867Z,6.40
2023-01-31T16:37:39.472Z,6.10
2023-01-31T16:40:22.629Z,6.07
2023-01-31T16:43:09.152Z,6.00
2023-01-31T16:45:39.547Z,6.20
2023-01-31T16:48:23.248Z,6.23
2023-01-31T16:52:12.599Z,5.90
2023-01-31T16:54:50.600Z,5.67
2023-01-31T16:57:27.280Z,6.70
2023-01-31T16:59:56.946Z,7.90
2023-01-31T17:02:54.620Z,5.17
2023-01-31T17:05:29.241Z,4.73
2023-01-31T17:08:04.409Z,6.97
2023-01-31T17:10:37.128Z,5.67
2023-01-31T17:13:53.682Z,5.13
2023-01-31T17:16:31.915Z,8.07
2023-01-31T17:19:03.610Z,6.17
2023-01-31T17:21:40.712Z,6.17
2023-01-31T17:24:14.930Z,7.97
2023-01-31T17:26:44.249Z,8.67
2023-01-31T17:29:15.951Z,8.27
2023-01-31T17:31:47.348Z,7.73
2023-01-31T17:34:26.807Z,7.23
2023-01-31T17:37:00.167Z,6.33
2023-01-31T17:39:29.561Z,5.60
2023-01-31T17:41:59.175Z,6.20
2023-01-31T17:44:28.412Z,9.43
2023-01-31T17:48:25.724Z,6.87
2023-01-31T17:51:27.603Z,10.10
2023-01-31T17:53:56.769Z,6.53
2023-01-31T17:56:25.721Z,7.27
2023-01-31T17:58:54.507Z,8.67
2023-01-31T18:01:37.313Z,7.07
2023-01-31T18:04:18.112Z,5.97
2023-01-31T18:06:48.944Z,5.80
2023-01-31T18:09:18.968Z,5.67
2023-01-31T18:12:35.614Z,4.73
2023-01-31T18:15:14.707Z,4.80
2023-01-31T18:17:45.633Z,5.17
2023-01-31T18:21:49.940Z,3.77
2023-01-31T18:24:01.815Z,9.03
2023-01-31T18:26:32.011Z,5.90
2023-01-31T18:29:31.756Z,5.87
2023-01-31T18:32:02.753Z,3.77
2023-01-31T18:34:33.404Z,5.33
2023-01-31T18:37:02.442Z,5.10
2023-01-31T18:39:33.045Z,5.23
2023-01-31T18:42:03.039Z,3.73
2023-01-31T18:44:32.529Z,4.93
2023-01-31T18:47:01.332Z,3.90
2023-01-31T18:49:30.938Z,3.93
2023-01-31T18:51:59.789Z,3.23
2023-01-31T18:54:28.578Z,3.37
2023-01-31T18:56:59.062Z,4.53
2023-01-31T18:59:27.825Z,6.97
2023-01-31T19:01:56.983Z,3.60
2023-01-31T19:04:26.368Z,4.40
2023-01-31T19:06:55.342Z,4.80
2023-01-31T19:10:02.245Z,5.90
2023-01-31T19:12:33.590Z,5.10
2023-01-31T19:15:02.823Z,4.23
2023-01-31T19:17:31.889Z,3.13
2023-01-31T19:20:01.701Z,3.17
2023-01-31T19:22:30.990Z,4.03
2023-01-31T19:25:03.808Z,3.60
2023-01-31T19:27:42.617Z,4.37
2023-01-31T19:30:14.148Z,3.23
2023-01-31T19:32:45.111Z,4.03
2023-01-31T19:35:14.419Z,3.00
2023-01-31T19:37:43.253Z,4.40
2023-01-31T19:40:13.705Z,4.60
2023-01-31T19:42:47.728Z,3.10
2023-01-31T19:45:18.236Z,3.20
2023-01-31T19:47:53.319Z,2.73
2023-01-31T19:50:24.888Z,3.57
2023-01-31T19:52:54.555Z,4.17
2023-01-31T19:56:04.878Z,4.37
2023-01-31T19:58:40.210Z,4.20
2023-01-31T20:01:13.738Z,4.40
2023-01-31T20:03:43.529Z,3.90
2023-01-31T20:06:16.198Z,3.57
2023-01-31T20:08:49.754Z,3.73
2023-01-31T20:11:20.901Z,3.07
2023-01-31T20:13:55.138Z,3.47
2023-01-31T20:16:28.209Z,3.60
2023-01-31T20:18:57.816Z,4.30
2023-01-31T20:21:27.786Z,2.63
2023-01-31T20:23:56.876Z,3.07
2023-01-31T20:26:29.593Z,3.00
2023-01-31T20:29:00.494Z,5.20
2023-01-31T20:31:29.464Z,3.10
2023-01-31T20:33:59.293Z,2.97
2023-01-31T20:36:28.701Z,4.23
2023-01-31T20:38:57.785Z,3.07
2023-01-31T20:41:26.701Z,3.33
2023-01-31T20:43:55.766Z,9.27
2023-01-31T20:47:43.282Z,5.53
2023-01-31T20:50:14.249Z,3.70
2023-01-31T20:52:43.215Z,3.17
2023-01-31T20:55:40.880Z,3.13
2023-01-31T20:58:09.851Z,3.27
2023-01-31T21:00:38.749Z,3.10
2023-01-31T21:03:07.626Z,3.60
2023-01-31T21:05:39.165Z,3.97
2023-01-31T21:08:08.333Z,2.67
2023-01-31T21:10:37.223Z,3.13
2023-01-31T21:13:06.247Z,4.30
2023-01-31T21:15:35.599Z,4.50
2023-01-31T21:18:04.613Z,4.40
2023-01-31T21:20:33.493Z,5.67
2023-01-31T21:23:03.784Z,5.47
2023-01-31T21:25:32.727Z,4.23
2023-01-31T21:28:05.111Z,3.53
2023-01-31T21:30:34.089Z,6.00
2023-01-31T21:33:02.965Z,4.73
2023-01-31T21:35:32.007Z,3.33
2023-01-31T21:38:02.312Z,4.90
2023-01-31T21:40:31.606Z,3.10
2023-01-31T21:42:59.539Z,4.60
2023-01-31T21:45:40.504Z,3.13
2023-01-31T21:48:30.606Z,3.77
2023-01-31T21:51:05.238Z,3.67
2023-01-31T21:53:36.217Z,3.30
2023-01-31T21:56:16.925Z,6.73
2023-01-31T21:58:46.384Z,3.97
2023-01-31T22:01:18.228Z,3.90
2023-01-31T22:03:50.109Z,3.93
2023-01-31T22:06:22.532Z,5.03
2023-01-31T22:08:58.388Z,3.77
2023-01-31T22:11:28.661Z,5.40
2023-01-31T22:13:57.485Z,4.20
2023-01-31T22:16:27.134Z,4.27
2023-01-31T22:18:56.044Z,4.57
2023-01-31T22:21:27.540Z,4.53
2023-01-31T22:24:00.945Z,5.30
2023-01-31T22:26:32.235Z,4.57
2023-01-31T22:29:03.440Z,6.03
2023-01-31T22:31:33.421Z,7.20
2023-01-31T22:34:03.902Z,8.03
2023-01-31T22:36:33.326Z,8.40
2023-01-31T22:39:03.893Z,8.00
2023-01-31T22:41:33.028Z,7.73
2023-01-31T22:44:56.588Z,8.87
2023-01-31T22:47:26.711Z,6.43
2023-01-31T22:49:55.654Z,6.43
2023-01-31T22:52:24.531Z,8.23
2023-01-31T22:54:54.713Z,8.70
2023-01-31T22:57:24.011Z,6.20
2023-01-31T22:59:52.839Z,7.80
2023-01-31T23:02:21.653Z,8.10
2023-01-31T23:04:51.642Z,8.43
2023-01-31T23:07:20.498Z,13.67
2023-01-31T23:09:49.348Z,8.60
2023-01-31T23:12:19.674Z,11.97
2023-01-31T23:14:48.505Z,7.67
2023-01-31T23:17:34.995Z,10.90
2023-01-31T23:20:05.936Z,7.20
2023-01-31T23:22:35.007Z,7.43
2023-01-31T23:25:04.220Z,8.27
2023-01-31T23:27:34.895Z,10.40
2023-01-31T23:30:03.735Z,8.60
2023-01-31T23:32:32.574Z,7.80
2023-01-31T23:35:01.561Z,10.60
2023-01-31T23:37:30.850Z,7.70
2023-01-31T23:39:59.781Z,10.87
2023-01-31T23:42:29.215Z,9.10
2023-01-31T23:44:59.552Z,8.50
2023-01-31T23:47:28.716Z,8.97
2023-01-31T23:49:57.537Z,10.97
2023-01-31T23:52:26.419Z,7.53
2023-01-31T23:54:55.334Z,8.03
2023-01-31T23:57:24.123Z,6.23
2023-01-31T23:59:52.945Z,8.00
